Gold Canyon, Arizona
Current Conditions -  °F | °C
As of 10:47 PM on Friday 24 Oct 2014 (Local Time) from KIWA Reporting Station
Clear Clear  
Wind Chill: 73°   Ceiling: Unl
Heat Index: 73°   Visibility: 20mi
Dew Point: 48°   Wind: 8mph
Humidity: 41%   Direction: 110°ESE
Pressure: 30.02"   Gusts: NA
Location:  33.2782°N, 111.363°W
Report Text: KIWA 250547Z 11007KT 20SM SKC 23/09 A3002
Loading
Personal Weather Stations






























Interactive Weather Map
Tropical Storm Tracking
New forecast layout! Learn more

10-Day Weather Forecast

Advertisements
Track Severe Weather on mobile